ADDS METAR Data INFO
IDs: Format: Raw Decoded Include TAF

Data at: 2043 UTC 16 Dec 2017

PACD 162027Z 26026G31KT 10SM FEW017 SCT023 BKN036 03/01 A2904 RMK AO2 PK WND 26031/2022 RAE10 P0001 T00280011
PACD 161953Z 23022KT 7SM -RA SCT007 BKN019 OVC026 02/01 A2901 RMK AO2 PK WND 23026/1944 SLP825 P0005 T00170011
PACD 161939Z 23018KT 8SM -RA SCT007 BKN019 OVC026 02/01 A2901 RMK AO2 P0004 T00170011
PACD 161853Z 25016KT 10SM -RA BKN029 02/01 A2901 RMK AO2 RAE06B20E30B46 SLP823 P0000 T00170006
PACD 161815Z 24010KT 10SM SCT025 02/01 A2899 RMK AO2 RAE06 P0000 T00170006
PACD 161753Z 24010KT 8SM -RA BKN025 OVC100 02/01 A2898 RMK AO2 RAB34 SLP815 P0001 60001 T00220006 10044 20011 55003
PACD 161653Z 17007KT 10SM FEW023 BKN037 BKN055 02/01 A2898 RMK AO2 RAB34E50 SLP813 P0000 T00220006
PACD 161553Z AUTO 16010KT 10SM SCT080 BKN100 02/M01 A2899 RMK AO2 SLP819 T00221011 TSNO
PACD 161453Z AUTO VRB03KT 10SM FEW026 FEW080 03/M02 A2901 RMK AO2 SLP826 T00331017 58009 TSNO
PACD 161353Z AUTO 18008G20KT 130V280 10SM BKN045 OVC100 03/M02 A2903 RMK AO2 SLP832 T00331017 TSNO
PACD 161253Z AUTO 17012KT 10SM FEW049 BKN075 OVC100 03/M01 A2904 RMK AO2 WSHFT 1226 SLP835 T00281011 TSNO
PACD 161246Z AUTO 16012G21KT 10SM FEW046 BKN070 OVC095 03/M01 A2904 RMK AO2 WSHFT 1226 T00281006 TSNO
PACD 161153Z AUTO 17011KT 10SM SCT043 01/M03 A2904 RMK AO2 SLP835 60000 70002 T00061028 10033 21006 50005 TSNO
PACD 161053Z AUTO 19006KT 10SM CLR M01/M02 A2905 RMK AO2 SLP838 T10061022 TSNO
PACD 160953Z AUTO 19005KT 10SM CLR 00/M01 A2904 RMK AO2 SLP835 T00001011 TSNO
PACD 160853Z AUTO 13003KT 10SM SCT048 02/01 A2903 RMK AO2 RAB11E26 SLP830 P0000 60000 T00170006 400610011 55005 TSNO
PACD 160753Z AUTO 15008KT 10SM FEW042 BKN090 02/00 A2902 RMK AO2 PK WND 17030/0722 UPB31E39RAB39E50 SLP829 P0000 T00170000 TSNO
PACD 160653Z AUTO 15014KT 10SM FEW055 02/M01 A2903 RMK AO2 PK WND 18026/0603 WSHFT 0556 SLP831 T00221011 TSNO
PACD 160616Z AUTO 18007KT 10SM FEW039 SCT065 BKN090 02/M01 A2904 RMK AO2 PK WND 18026/0603 WSHFT 0556 T00171011 TSNO
PACD 160553Z AUTO 14007KT 10SM FEW055 SCT110 03/M02 A2904 RMK AO2 SLP835 T00281022 10039 20017 53006 TSNO
PACD 160453Z AUTO 15007G21KT 10SM CLR 02/M03 A2903 RMK AO2 PK WND 23027/0421 SLP831 T00221028 TSNO
PACD 160353Z AUTO 21016KT 10SM CLR 03/M03 A2902 RMK AO2 SLP827 T00331033 TSNO
PACD 160253Z AUTO 18005KT 10SM CLR 02/M02 A2902 RMK AO2 SLP828 T00221022 51011 TSNO
PACD 160153Z 15006KT 10SM CLR 03/M03 A2901 RMK AO2 SLP826 T00281028
PACD 160053Z 15006KT 10SM CLR 03/M01 A2900 RMK AO2 SLP823 T00281006
PACD 152353Z 19008KT 10SM FEW095 03/M01 A2899 RMK AO2 SLP818 60001 T00331011 10044 20011 53011
PACD 152253Z 20010KT 10SM FEW029 BKN070 03/M01 A2898 RMK AO2 PK WND 22026/2231 RAB32E45SNB45E46 SLP813 P0001 T00281011
PACD 152153Z 21019KT 10SM CLR 04/M01 A2896 RMK AO2 SLP808 T00391011
PACD 152053Z 21016KT 10SM CLR 03/M02 A2896 RMK AO2 PK WND 20026/2042 SLP806 T00331022 51011
PACD 151953Z 21019KT 10SM CLR 03/M02 A2895 RMK AO2 SLP803 T00331022
PACD 151853Z 19008KT 10SM CLR 01/M03 A2894 RMK AO2 SLP802 T00111028
PACD 151753Z 22021G36KT 10SM CLR 03/M04 A2892 RMK AO2 PK WND 23037/1717 SLP795 60001 T00331039 10056 20022 51038
PACD 151653Z AUTO 23026G32KT 10SM BKN047 03/M02 A2889 RMK AO2 PK WND 23034/1631 SLP785 T00331022 TSNO
PACD 151553Z AUTO 24028G36KT 10SM FEW026 BKN041 BKN060 03/00 A2886 RMK AO2 PK WND 24040/1542 PRESRR SLP772 T00330000 TSNO
PACD 151453Z AUTO 24029G36KT 10SM OVC075 04/01 A2881 RMK AO2 PK WND 24042/1441 PRESRR SLP757 60001 T00390011 51041 TSNO
PACD 151353Z AUTO 24024G32KT 10SM FEW041 BKN050 OVC070 04/01 A2877 RMK AO2 PK WND 23036/1312 SLP744 T00390006 TSNO
PACD 151253Z AUTO 23022G33KT 10SM SCT036 SCT055 OVC070 05/00 A2876 RMK AO2 PK WND 20035/1242 WSHFT 1140 RAE04 SLP740 P0001 T00500000 TSNO
PACD 151200Z AUTO 24009KT 10SM -RA FEW016 SCT022 OVC035 04/03 A2870 RMK AO2 WSHFT 1140 PRESRR P0001 T00390028 TSNO
PACD 151153Z AUTO 24015G31KT 7SM -RA FEW016 BKN028 OVC035 04/03 A2869 RMK AO2 PK WND 23038/1143 WSHFT 1129 RAE20B42 PRESRR SLP716 P0001 60024 70025 T00390033 10061 20017 55005 TSNO
PACD 151143Z AUTO 23030G38KT 7SM -RA FEW016 BKN022 OVC045 06/04 A2866 RMK AO2 PK WND 23038/1143 WSHFT 1129 RAE20B42 P0001 T00560039 TSNO
PACD 151113Z AUTO 14022G30KT 4SM -RA BR SCT010 BKN048 OVC055 05/04 A2864 RMK AO2 PK WND 14030/1111 P0000 T00500044 TSNO
PACD 151053Z AUTO 14019KT 3SM -RA BR FEW008 BKN015 OVC023 05/04 A2865 RMK AO2 PK WND 15032/1030 SLP703 P0003 T00500044 TSNO
PACD 151050Z AUTO 14020KT 2 1/2SM -RA BR FEW008 BKN013 OVC022 05/04 A2866 RMK AO2 PK WND 15032/1030 P0002 TSNO
PACD 151036Z AUTO 15023G32KT 1 3/4SM -RA BR FEW008 OVC013 05/04 A2867 RMK AO2 PK WND 15032/1030 P0001 T00500044 TSNO
PACD 151026Z AUTO 14025G31KT 3SM -RA BR FEW008 OVC014 05/04 A2866 RMK AO2 PK WND 14032/1008 P0001 T00500044 TSNO
PACD 151016Z AUTO 14022G32KT 2 1/2SM -RA BR BKN008 BKN016 OVC020 05/04 A2867 RMK AO2 PK WND 14032/1008 PRESFR P0000 T00500044 TSNO
PACD 150953Z AUTO 14023G31KT 6SM -RA BR SCT008 BKN014 OVC021 06/05 A2871 RMK AO2 PK WND 12044/0906 RAB17SNE17 SLP721 P0004 T00560050 TSNO
PACD 150944Z AUTO 13020G39KT 3SM -RA BR SCT008 BKN013 OVC024 05/04 A2871 RMK AO2 PK WND 12044/0906 RAB17SNE17 P0003 T00500039 TSNO
PACD 150934Z AUTO 12025G38KT 2 1/2SM RA BR FEW015 FEW021 OVC029 04/03 A2872 RMK AO2 PK WND 12044/0906 RAB17SNE17 P0002 T00440033 TSNO
PACD 150853Z AUTO 12036G49KT 5SM -SN BR FEW011 OVC031 03/02 A2872 RMK AO2 PK WND 11053/0828 RAE05SNB05 SLP728 P0003 60016 T00330017 400331017 58116 TSNO